Llanybydder, United Kingdom
Current Conditions -  °F | °C
As of 6:50 PM on Saturday 25 Oct 2014 (Local Time) from EGOP Reporting Station
Broken Clouds Broken Clouds  
Wind Chill: 57°   Ceiling: 4000
Heat Index: 57°   Visibility: 6mi
Dew Point: 52°   Wind: 25mph
Humidity: 82%   Direction: 230°SW
Pressure: 30.06"   Gusts: NA
Location:  52.07°N, 4.16°W
Report Text: EGOP 251750Z AUTO 23022KT 9999 // BKN040/// 14/11 Q1018
Loading
Personal Weather Stations






























Interactive Weather Map New forecast layout! Learn more

10-Day Weather Forecast

Advertisements
Track Severe Weather on mobile